sensor_id;sensor_type;location;lat;lon;timestamp;P1;durP1;ratioP1;P2;durP2;ratioP2
64799;SDS011;51233;51.982;4.594;2023-01-23T00:00:26;4.33;;;3.90;;
64799;SDS011;51233;51.982;4.594;2023-01-23T00:03:26;5.97;;;4.72;;
64799;SDS011;51233;51.982;4.594;2023-01-23T00:06:27;8.05;;;5.15;;
64799;SDS011;51233;51.982;4.594;2023-01-23T00:09:27;4.05;;;3.72;;
64799;SDS011;51233;51.982;4.594;2023-01-23T00:12:27;5.82;;;4.43;;
64799;SDS011;51233;51.982;4.594;2023-01-23T00:15:28;4.75;;;4.35;;
64799;SDS011;51233;51.982;4.594;2023-01-23T00:18:28;5.03;;;3.53;;
64799;SDS011;51233;51.982;4.594;2023-01-23T00:21:28;5.05;;;3.92;;
64799;SDS011;51233;51.982;4.594;2023-01-23T00:24:28;5.47;;;4.00;;
64799;SDS011;51233;51.982;4.594;2023-01-23T00:27:29;6.03;;;4.65;;
64799;SDS011;51233;51.982;4.594;2023-01-23T00:30:29;9.00;;;5.13;;
64799;SDS011;51233;51.982;4.594;2023-01-23T00:33:29;7.10;;;4.80;;
64799;SDS011;51233;51.982;4.594;2023-01-23T00:36:31;5.83;;;4.80;;
64799;SDS011;51233;51.982;4.594;2023-01-23T00:39:32;7.80;;;5.15;;
64799;SDS011;51233;51.982;4.594;2023-01-23T00:42:32;5.27;;;4.23;;
64799;SDS011;51233;51.982;4.594;2023-01-23T00:45:32;6.45;;;4.40;;
64799;SDS011;51233;51.982;4.594;2023-01-23T00:48:32;8.55;;;4.90;;
64799;SDS011;51233;51.982;4.594;2023-01-23T00:51:33;6.10;;;4.93;;
64799;SDS011;51233;51.982;4.594;2023-01-23T00:54:33;7.50;;;4.90;;
64799;SDS011;51233;51.982;4.594;2023-01-23T00:57:33;5.85;;;4.78;;
64799;SDS011;51233;51.982;4.594;2023-01-23T01:00:37;5.55;;;4.43;;
64799;SDS011;51233;51.982;4.594;2023-01-23T01:03:37;4.18;;;3.78;;
64799;SDS011;51233;51.982;4.594;2023-01-23T01:06:37;6.97;;;4.90;;
64799;SDS011;51233;51.982;4.594;2023-01-23T01:09:37;4.97;;;3.85;;
64799;SDS011;51233;51.982;4.594;2023-01-23T01:12:38;8.60;;;4.70;;
64799;SDS011;51233;51.982;4.594;2023-01-23T01:15:38;6.15;;;3.67;;
64799;SDS011;51233;51.982;4.594;2023-01-23T01:18:38;5.15;;;4.38;;
64799;SDS011;51233;51.982;4.594;2023-01-23T01:21:39;5.40;;;4.88;;
64799;SDS011;51233;51.982;4.594;2023-01-23T01:24:42;6.88;;;5.20;;
64799;SDS011;51233;51.982;4.594;2023-01-23T01:27:42;7.95;;;4.80;;
64799;SDS011;51233;51.982;4.594;2023-01-23T01:30:42;4.88;;;3.75;;
64799;SDS011;51233;51.982;4.594;2023-01-23T01:33:43;5.63;;;4.53;;
64799;SDS011;51233;51.982;4.594;2023-01-23T01:36:43;4.40;;;4.10;;
64799;SDS011;51233;51.982;4.594;2023-01-23T01:39:43;5.43;;;4.47;;
64799;SDS011;51233;51.982;4.594;2023-01-23T01:42:44;4.35;;;3.95;;
64799;SDS011;51233;51.982;4.594;2023-01-23T01:52:01;4.85;;;4.22;;
64799;SDS011;51233;51.982;4.594;2023-01-23T01:58:02;4.63;;;3.50;;
64799;SDS011;51233;51.982;4.594;2023-01-23T02:01:02;3.97;;;3.58;;
64799;SDS011;51233;51.982;4.594;2023-01-23T02:04:02;4.15;;;3.75;;
64799;SDS011;51233;51.982;4.594;2023-01-23T02:07:04;4.75;;;3.70;;
64799;SDS011;51233;51.982;4.594;2023-01-23T02:10:06;4.88;;;4.47;;
64799;SDS011;51233;51.982;4.594;2023-01-23T02:13:26;5.47;;;4.10;;
64799;SDS011;51233;51.982;4.594;2023-01-23T02:16:35;4.70;;;4.28;;
64799;SDS011;51233;51.982;4.594;2023-01-23T02:19:44;9.50;;;5.65;;
64799;SDS011;51233;51.982;4.594;2023-01-23T02:23:00;7.20;;;4.88;;
64799;SDS011;51233;51.982;4.594;2023-01-23T02:26:17;9.00;;;4.93;;
64799;SDS011;51233;51.982;4.594;2023-01-23T02:29:18;8.35;;;5.40;;
64799;SDS011;51233;51.982;4.594;2023-01-23T02:32:19;6.90;;;4.38;;
64799;SDS011;51233;51.982;4.594;2023-01-23T02:35:29;8.45;;;4.38;;
64799;SDS011;51233;51.982;4.594;2023-01-23T02:38:31;5.50;;;4.20;;
64799;SDS011;51233;51.982;4.594;2023-01-23T02:41:34;6.15;;;4.22;;
64799;SDS011;51233;51.982;4.594;2023-01-23T02:44:35;8.25;;;4.97;;
64799;SDS011;51233;51.982;4.594;2023-01-23T02:47:35;7.25;;;5.70;;
64799;SDS011;51233;51.982;4.594;2023-01-23T02:50:35;4.57;;;3.67;;
64799;SDS011;51233;51.982;4.594;2023-01-23T02:53:36;6.22;;;4.22;;
64799;SDS011;51233;51.982;4.594;2023-01-23T02:56:36;7.28;;;5.13;;
64799;SDS011;51233;51.982;4.594;2023-01-23T02:59:37;6.07;;;4.90;;
64799;SDS011;51233;51.982;4.594;2023-01-23T03:02:56;6.20;;;5.20;;
64799;SDS011;51233;51.982;4.594;2023-01-23T03:05:56;7.13;;;5.00;;
64799;SDS011;51233;51.982;4.594;2023-01-23T03:08:58;7.40;;;5.63;;
64799;SDS011;51233;51.982;4.594;2023-01-23T03:11:59;7.15;;;5.07;;
64799;SDS011;51233;51.982;4.594;2023-01-23T03:14:59;8.65;;;5.50;;
64799;SDS011;51233;51.982;4.594;2023-01-23T03:18:00;5.65;;;4.50;;
64799;SDS011;51233;51.982;4.594;2023-01-23T03:21:09;8.05;;;5.35;;
64799;SDS011;51233;51.982;4.594;2023-01-23T03:24:10;9.45;;;4.85;;
64799;SDS011;51233;51.982;4.594;2023-01-23T03:27:10;7.03;;;5.80;;
64799;SDS011;51233;51.982;4.594;2023-01-23T03:30:11;7.55;;;5.50;;
64799;SDS011;51233;51.982;4.594;2023-01-23T03:33:12;4.82;;;4.40;;
64799;SDS011;51233;51.982;4.594;2023-01-23T03:36:12;5.85;;;4.85;;
64799;SDS011;51233;51.982;4.594;2023-01-23T03:39:12;7.35;;;5.13;;
64799;SDS011;51233;51.982;4.594;2023-01-23T03:42:34;6.20;;;4.50;;
64799;SDS011;51233;51.982;4.594;2023-01-23T03:45:35;8.57;;;4.90;;
64799;SDS011;51233;51.982;4.594;2023-01-23T03:48:38;5.78;;;4.28;;
64799;SDS011;51233;51.982;4.594;2023-01-23T03:51:38;6.15;;;5.00;;
64799;SDS011;51233;51.982;4.594;2023-01-23T03:54:38;7.57;;;5.22;;
64799;SDS011;51233;51.982;4.594;2023-01-23T03:57:39;8.00;;;5.87;;
64799;SDS011;51233;51.982;4.594;2023-01-23T04:00:39;7.68;;;5.63;;
64799;SDS011;51233;51.982;4.594;2023-01-23T04:03:39;6.57;;;5.63;;
64799;SDS011;51233;51.982;4.594;2023-01-23T04:06:39;6.85;;;5.03;;
64799;SDS011;51233;51.982;4.594;2023-01-23T04:09:39;5.28;;;4.75;;
64799;SDS011;51233;51.982;4.594;2023-01-23T04:12:42;4.80;;;4.40;;
64799;SDS011;51233;51.982;4.594;2023-01-23T04:15:43;9.13;;;5.65;;
64799;SDS011;51233;51.982;4.594;2023-01-23T04:18:43;5.88;;;4.65;;
64799;SDS011;51233;51.982;4.594;2023-01-23T04:21:43;8.07;;;5.47;;
64799;SDS011;51233;51.982;4.594;2023-01-23T04:24:43;7.30;;;5.20;;
64799;SDS011;51233;51.982;4.594;2023-01-23T04:27:43;9.07;;;5.15;;
64799;SDS011;51233;51.982;4.594;2023-01-23T04:30:44;7.20;;;5.65;;
64799;SDS011;51233;51.982;4.594;2023-01-23T04:33:44;11.02;;;6.00;;
64799;SDS011;51233;51.982;4.594;2023-01-23T04:36:44;9.30;;;6.65;;
64799;SDS011;51233;51.982;4.594;2023-01-23T04:40:06;6.57;;;5.55;;
64799;SDS011;51233;51.982;4.594;2023-01-23T04:43:05;8.77;;;5.93;;
64799;SDS011;51233;51.982;4.594;2023-01-23T04:46:05;6.55;;;5.20;;
64799;SDS011;51233;51.982;4.594;2023-01-23T04:49:05;10.77;;;6.70;;
64799;SDS011;51233;51.982;4.594;2023-01-23T04:52:05;8.30;;;6.20;;
64799;SDS011;51233;51.982;4.594;2023-01-23T04:55:06;6.33;;;4.87;;
64799;SDS011;51233;51.982;4.594;2023-01-23T04:58:06;8.07;;;5.95;;
64799;SDS011;51233;51.982;4.594;2023-01-23T05:01:06;16.85;;;7.60;;
64799;SDS011;51233;51.982;4.594;2023-01-23T05:04:07;6.97;;;5.95;;
64799;SDS011;51233;51.982;4.594;2023-01-23T05:07:07;4.93;;;3.92;;
64799;SDS011;51233;51.982;4.594;2023-01-23T05:10:10;10.57;;;6.57;;
64799;SDS011;51233;51.982;4.594;2023-01-23T05:13:14;5.85;;;4.75;;
64799;SDS011;51233;51.982;4.594;2023-01-23T05:16:14;6.25;;;4.35;;
64799;SDS011;51233;51.982;4.594;2023-01-23T05:19:14;7.03;;;5.35;;
64799;SDS011;51233;51.982;4.594;2023-01-23T05:22:14;8.07;;;5.30;;
64799;SDS011;51233;51.982;4.594;2023-01-23T05:25:21;5.90;;;5.30;;
64799;SDS011;51233;51.982;4.594;2023-01-23T05:28:24;7.55;;;5.45;;
64799;SDS011;51233;51.982;4.594;2023-01-23T05:31:24;7.38;;;5.45;;
64799;SDS011;51233;51.982;4.594;2023-01-23T05:34:24;9.23;;;5.97;;
64799;SDS011;51233;51.982;4.594;2023-01-23T05:37:24;9.95;;;6.40;;
64799;SDS011;51233;51.982;4.594;2023-01-23T05:40:25;7.78;;;5.88;;
64799;SDS011;51233;51.982;4.594;2023-01-23T05:43:25;6.78;;;5.22;;
64799;SDS011;51233;51.982;4.594;2023-01-23T05:46:25;7.85;;;6.10;;
64799;SDS011;51233;51.982;4.594;2023-01-23T05:49:25;13.27;;;6.83;;
64799;SDS011;51233;51.982;4.594;2023-01-23T05:52:25;5.23;;;4.63;;
64799;SDS011;51233;51.982;4.594;2023-01-23T05:55:26;11.52;;;6.25;;
64799;SDS011;51233;51.982;4.594;2023-01-23T05:58:26;9.52;;;6.93;;
64799;SDS011;51233;51.982;4.594;2023-01-23T06:01:26;8.53;;;6.17;;
64799;SDS011;51233;51.982;4.594;2023-01-23T06:04:26;7.88;;;5.75;;
64799;SDS011;51233;51.982;4.594;2023-01-23T06:07:26;9.35;;;6.95;;
64799;SDS011;51233;51.982;4.594;2023-01-23T06:10:27;10.13;;;6.18;;
64799;SDS011;51233;51.982;4.594;2023-01-23T06:13:27;11.93;;;6.80;;
64799;SDS011;51233;51.982;4.594;2023-01-23T06:16:27;9.30;;;6.20;;
64799;SDS011;51233;51.982;4.594;2023-01-23T06:19:27;9.20;;;6.50;;
64799;SDS011;51233;51.982;4.594;2023-01-23T06:22:27;9.77;;;6.13;;
64799;SDS011;51233;51.982;4.594;2023-01-23T06:25:28;8.13;;;6.47;;
64799;SDS011;51233;51.982;4.594;2023-01-23T06:28:28;9.63;;;6.38;;
64799;SDS011;51233;51.982;4.594;2023-01-23T06:31:28;9.23;;;6.40;;
64799;SDS011;51233;51.982;4.594;2023-01-23T06:34:31;8.73;;;6.90;;
64799;SDS011;51233;51.982;4.594;2023-01-23T06:37:31;11.43;;;7.10;;
64799;SDS011;51233;51.982;4.594;2023-01-23T06:40:31;8.52;;;6.38;;
64799;SDS011;51233;51.982;4.594;2023-01-23T06:43:40;7.70;;;6.93;;
64799;SDS011;51233;51.982;4.594;2023-01-23T06:46:41;8.30;;;6.88;;
64799;SDS011;51233;51.982;4.594;2023-01-23T06:49:41;9.40;;;7.10;;
64799;SDS011;51233;51.982;4.594;2023-01-23T06:52:41;8.50;;;6.45;;
64799;SDS011;51233;51.982;4.594;2023-01-23T06:55:41;10.02;;;8.02;;
64799;SDS011;51233;51.982;4.594;2023-01-23T06:58:42;10.40;;;6.83;;
64799;SDS011;51233;51.982;4.594;2023-01-23T07:01:43;11.53;;;7.60;;
64799;SDS011;51233;51.982;4.594;2023-01-23T07:04:43;10.40;;;7.50;;
64799;SDS011;51233;51.982;4.594;2023-01-23T07:07:46;8.70;;;6.45;;
64799;SDS011;51233;51.982;4.594;2023-01-23T07:10:48;9.05;;;6.90;;
64799;SDS011;51233;51.982;4.594;2023-01-23T07:13:48;10.35;;;7.10;;
64799;SDS011;51233;51.982;4.594;2023-01-23T07:16:48;11.40;;;8.00;;
64799;SDS011;51233;51.982;4.594;2023-01-23T07:19:48;9.13;;;7.60;;
64799;SDS011;51233;51.982;4.594;2023-01-23T07:22:49;9.38;;;7.03;;
64799;SDS011;51233;51.982;4.594;2023-01-23T07:25:49;8.43;;;7.10;;
64799;SDS011;51233;51.982;4.594;2023-01-23T07:28:50;8.15;;;7.32;;
64799;SDS011;51233;51.982;4.594;2023-01-23T07:31:50;8.25;;;6.85;;
64799;SDS011;51233;51.982;4.594;2023-01-23T07:34:50;9.05;;;6.82;;
64799;SDS011;51233;51.982;4.594;2023-01-23T07:37:52;10.25;;;7.05;;
64799;SDS011;51233;51.982;4.594;2023-01-23T07:40:56;9.85;;;7.05;;
64799;SDS011;51233;51.982;4.594;2023-01-23T07:43:56;6.93;;;6.32;;
64799;SDS011;51233;51.982;4.594;2023-01-23T07:46:56;10.23;;;7.43;;
64799;SDS011;51233;51.982;4.594;2023-01-23T07:49:57;9.25;;;7.45;;
64799;SDS011;51233;51.982;4.594;2023-01-23T07:52:57;9.10;;;7.40;;
64799;SDS011;51233;51.982;4.594;2023-01-23T07:55:57;9.98;;;7.57;;
64799;SDS011;51233;51.982;4.594;2023-01-23T07:58:58;8.35;;;7.20;;
64799;SDS011;51233;51.982;4.594;2023-01-23T08:01:58;8.10;;;6.03;;
64799;SDS011;51233;51.982;4.594;2023-01-23T08:04:58;7.63;;;6.35;;
64799;SDS011;51233;51.982;4.594;2023-01-23T08:07:58;6.40;;;5.45;;
64799;SDS011;51233;51.982;4.594;2023-01-23T08:11:02;8.75;;;6.70;;
64799;SDS011;51233;51.982;4.594;2023-01-23T08:14:02;8.45;;;6.13;;
64799;SDS011;51233;51.982;4.594;2023-01-23T08:17:02;7.60;;;5.73;;
64799;SDS011;51233;51.982;4.594;2023-01-23T08:20:03;7.05;;;6.10;;
64799;SDS011;51233;51.982;4.594;2023-01-23T08:23:03;7.68;;;5.95;;
64799;SDS011;51233;51.982;4.594;2023-01-23T08:26:04;11.00;;;6.78;;
64799;SDS011;51233;51.982;4.594;2023-01-23T08:32:05;6.50;;;5.72;;
64799;SDS011;51233;51.982;4.594;2023-01-23T08:35:06;9.82;;;6.32;;
64799;SDS011;51233;51.982;4.594;2023-01-23T08:38:06;8.25;;;6.32;;
64799;SDS011;51233;51.982;4.594;2023-01-23T08:41:09;9.95;;;5.97;;
64799;SDS011;51233;51.982;4.594;2023-01-23T08:44:10;7.15;;;6.18;;
64799;SDS011;51233;51.982;4.594;2023-01-23T08:47:11;7.43;;;5.75;;
64799;SDS011;51233;51.982;4.594;2023-01-23T08:50:11;11.98;;;7.38;;
64799;SDS011;51233;51.982;4.594;2023-01-23T08:53:11;9.05;;;6.63;;
64799;SDS011;51233;51.982;4.594;2023-01-23T08:56:15;7.97;;;6.63;;
64799;SDS011;51233;51.982;4.594;2023-01-23T08:59:16;5.38;;;4.22;;
64799;SDS011;51233;51.982;4.594;2023-01-23T09:02:16;4.87;;;4.10;;
64799;SDS011;51233;51.982;4.594;2023-01-23T09:05:16;7.17;;;5.70;;
64799;SDS011;51233;51.982;4.594;2023-01-23T09:08:17;5.07;;;4.67;;
64799;SDS011;51233;51.982;4.594;2023-01-23T09:11:17;7.50;;;5.80;;
64799;SDS011;51233;51.982;4.594;2023-01-23T09:14:20;8.00;;;5.97;;
64799;SDS011;51233;51.982;4.594;2023-01-23T09:17:21;6.43;;;4.95;;
64799;SDS011;51233;51.982;4.594;2023-01-23T09:20:24;10.90;;;7.22;;
64799;SDS011;51233;51.982;4.594;2023-01-23T09:23:25;9.20;;;6.85;;
64799;SDS011;51233;51.982;4.594;2023-01-23T09:26:25;9.27;;;7.45;;
64799;SDS011;51233;51.982;4.594;2023-01-23T09:29:25;10.02;;;7.97;;
64799;SDS011;51233;51.982;4.594;2023-01-23T09:32:26;9.65;;;7.40;;
64799;SDS011;51233;51.982;4.594;2023-01-23T09:35:26;11.43;;;7.97;;
64799;SDS011;51233;51.982;4.594;2023-01-23T09:38:26;10.07;;;7.05;;
64799;SDS011;51233;51.982;4.594;2023-01-23T09:41:27;8.02;;;6.78;;
64799;SDS011;51233;51.982;4.594;2023-01-23T09:44:31;7.77;;;6.80;;
64799;SDS011;51233;51.982;4.594;2023-01-23T09:47:35;8.20;;;7.40;;
64799;SDS011;51233;51.982;4.594;2023-01-23T09:50:39;10.00;;;7.47;;
64799;SDS011;51233;51.982;4.594;2023-01-23T09:53:43;9.88;;;7.63;;
64799;SDS011;51233;51.982;4.594;2023-01-23T09:56:44;8.32;;;7.00;;
64799;SDS011;51233;51.982;4.594;2023-01-23T09:59:48;10.48;;;7.00;;
64799;SDS011;51233;51.982;4.594;2023-01-23T10:02:49;7.85;;;6.45;;
64799;SDS011;51233;51.982;4.594;2023-01-23T10:15:09;6.80;;;6.05;;
64799;SDS011;51233;51.982;4.594;2023-01-23T10:18:14;10.13;;;7.95;;
64799;SDS011;51233;51.982;4.594;2023-01-23T10:21:31;7.47;;;6.35;;
64799;SDS011;51233;51.982;4.594;2023-01-23T10:27:40;9.32;;;7.32;;
64799;SDS011;51233;51.982;4.594;2023-01-23T10:30:44;8.00;;;6.72;;
64799;SDS011;51233;51.982;4.594;2023-01-23T10:33:48;8.20;;;7.03;;
64799;SDS011;51233;51.982;4.594;2023-01-23T10:37:01;7.78;;;6.47;;
64799;SDS011;51233;51.982;4.594;2023-01-23T10:40:09;8.32;;;6.90;;
64799;SDS011;51233;51.982;4.594;2023-01-23T10:43:11;8.55;;;7.15;;
64799;SDS011;51233;51.982;4.594;2023-01-23T10:46:14;11.55;;;7.65;;
64799;SDS011;51233;51.982;4.594;2023-01-23T10:49:56;10.65;;;6.68;;
64799;SDS011;51233;51.982;4.594;2023-01-23T10:52:39;7.50;;;5.65;;
64799;SDS011;51233;51.982;4.594;2023-01-23T10:55:42;7.97;;;7.18;;
64799;SDS011;51233;51.982;4.594;2023-01-23T10:58:44;8.35;;;6.43;;
64799;SDS011;51233;51.982;4.594;2023-01-23T11:01:45;6.18;;;5.32;;
64799;SDS011;51233;51.982;4.594;2023-01-23T11:04:53;8.43;;;6.10;;
64799;SDS011;51233;51.982;4.594;2023-01-23T11:07:53;7.22;;;6.53;;
64799;SDS011;51233;51.982;4.594;2023-01-23T11:11:10;7.10;;;5.95;;
64799;SDS011;51233;51.982;4.594;2023-01-23T11:14:14;7.93;;;6.57;;
64799;SDS011;51233;51.982;4.594;2023-01-23T11:17:19;6.50;;;5.88;;
64799;SDS011;51233;51.982;4.594;2023-01-23T11:23:23;6.43;;;5.82;;
64799;SDS011;51233;51.982;4.594;2023-01-23T11:26:30;5.65;;;5.03;;
64799;SDS011;51233;51.982;4.594;2023-01-23T11:29:41;7.68;;;6.20;;
64799;SDS011;51233;51.982;4.594;2023-01-23T11:32:53;5.00;;;4.40;;
64799;SDS011;51233;51.982;4.594;2023-01-23T11:38:59;7.85;;;6.65;;
64799;SDS011;51233;51.982;4.594;2023-01-23T11:42:02;6.13;;;5.53;;
64799;SDS011;51233;51.982;4.594;2023-01-23T11:45:02;5.82;;;5.32;;
64799;SDS011;51233;51.982;4.594;2023-01-23T11:51:24;6.45;;;5.85;;
64799;SDS011;51233;51.982;4.594;2023-01-23T11:58:00;5.80;;;5.30;;
64799;SDS011;51233;51.982;4.594;2023-01-23T12:01:52;6.60;;;6.00;;
64799;SDS011;51233;51.982;4.594;2023-01-23T12:07:33;7.60;;;5.72;;
64799;SDS011;51233;51.982;4.594;2023-01-23T12:10:52;6.85;;;5.97;;
64799;SDS011;51233;51.982;4.594;2023-01-23T12:26:33;8.65;;;7.00;;
64799;SDS011;51233;51.982;4.594;2023-01-23T12:35:55;9.50;;;7.53;;
64799;SDS011;51233;51.982;4.594;2023-01-23T12:39:19;7.00;;;6.30;;
64799;SDS011;51233;51.982;4.594;2023-01-23T12:42:26;6.75;;;6.03;;
64799;SDS011;51233;51.982;4.594;2023-01-23T12:45:28;8.07;;;7.28;;
64799;SDS011;51233;51.982;4.594;2023-01-23T12:48:39;6.88;;;6.13;;
64799;SDS011;51233;51.982;4.594;2023-01-23T12:51:42;5.80;;;5.20;;
64799;SDS011;51233;51.982;4.594;2023-01-23T12:54:45;6.05;;;5.55;;
64799;SDS011;51233;51.982;4.594;2023-01-23T12:57:50;6.53;;;5.93;;
64799;SDS011;51233;51.982;4.594;2023-01-23T13:00:53;5.82;;;5.18;;
64799;SDS011;51233;51.982;4.594;2023-01-23T13:04:02;7.57;;;6.88;;
64799;SDS011;51233;51.982;4.594;2023-01-23T13:07:08;6.13;;;5.63;;
64799;SDS011;51233;51.982;4.594;2023-01-23T13:10:19;5.18;;;4.68;;
64799;SDS011;51233;51.982;4.594;2023-01-23T13:13:20;5.18;;;4.68;;
64799;SDS011;51233;51.982;4.594;2023-01-23T13:16:20;5.40;;;4.90;;
64799;SDS011;51233;51.982;4.594;2023-01-23T13:19:24;5.78;;;5.25;;
64799;SDS011;51233;51.982;4.594;2023-01-23T13:22:46;5.75;;;5.30;;
64799;SDS011;51233;51.982;4.594;2023-01-23T13:25:46;4.45;;;4.15;;
64799;SDS011;51233;51.982;4.594;2023-01-23T13:28:47;4.45;;;4.15;;
64799;SDS011;51233;51.982;4.594;2023-01-23T13:31:47;5.67;;;5.10;;
64799;SDS011;51233;51.982;4.594;2023-01-23T13:34:50;6.13;;;5.63;;
64799;SDS011;51233;51.982;4.594;2023-01-23T13:37:50;6.50;;;5.95;;
64799;SDS011;51233;51.982;4.594;2023-01-23T13:44:09;5.05;;;4.55;;
64799;SDS011;51233;51.982;4.594;2023-01-23T13:47:19;5.70;;;5.20;;
64799;SDS011;51233;51.982;4.594;2023-01-23T13:50:40;4.35;;;4.05;;
64799;SDS011;51233;51.982;4.594;2023-01-23T13:53:44;5.68;;;4.70;;
64799;SDS011;51233;51.982;4.594;2023-01-23T13:57:04;5.20;;;4.70;;
64799;SDS011;51233;51.982;4.594;2023-01-23T14:00:05;7.70;;;6.05;;
64799;SDS011;51233;51.982;4.594;2023-01-23T14:03:14;7.50;;;5.93;;
64799;SDS011;51233;51.982;4.594;2023-01-23T14:06:35;7.32;;;6.10;;
64799;SDS011;51233;51.982;4.594;2023-01-23T14:09:35;6.75;;;6.15;;
64799;SDS011;51233;51.982;4.594;2023-01-23T14:12:35;7.15;;;5.60;;
64799;SDS011;51233;51.982;4.594;2023-01-23T14:15:37;7.95;;;7.18;;
64799;SDS011;51233;51.982;4.594;2023-01-23T14:18:56;6.72;;;6.00;;
64799;SDS011;51233;51.982;4.594;2023-01-23T14:22:03;7.35;;;6.47;;
64799;SDS011;51233;51.982;4.594;2023-01-23T14:25:04;8.35;;;7.63;;
64799;SDS011;51233;51.982;4.594;2023-01-23T14:28:16;8.18;;;7.38;;
64799;SDS011;51233;51.982;4.594;2023-01-23T14:31:25;7.40;;;6.70;;
64799;SDS011;51233;51.982;4.594;2023-01-23T14:34:26;6.20;;;5.70;;
64799;SDS011;51233;51.982;4.594;2023-01-23T14:37:26;7.30;;;6.70;;
64799;SDS011;51233;51.982;4.594;2023-01-23T14:40:28;9.18;;;7.63;;
64799;SDS011;51233;51.982;4.594;2023-01-23T14:43:28;8.23;;;7.30;;
64799;SDS011;51233;51.982;4.594;2023-01-23T14:46:35;6.53;;;5.67;;
64799;SDS011;51233;51.982;4.594;2023-01-23T14:49:36;7.68;;;6.95;;
64799;SDS011;51233;51.982;4.594;2023-01-23T14:52:36;8.03;;;7.33;;
64799;SDS011;51233;51.982;4.594;2023-01-23T14:55:38;6.57;;;5.97;;
64799;SDS011;51233;51.982;4.594;2023-01-23T14:58:38;7.50;;;6.70;;
64799;SDS011;51233;51.982;4.594;2023-01-23T15:01:39;5.37;;;4.90;;
64799;SDS011;51233;51.982;4.594;2023-01-23T15:04:39;6.17;;;5.67;;
64799;SDS011;51233;51.982;4.594;2023-01-23T15:07:43;7.80;;;6.60;;
64799;SDS011;51233;51.982;4.594;2023-01-23T15:10:44;4.90;;;4.40;;
64799;SDS011;51233;51.982;4.594;2023-01-23T15:13:47;7.05;;;6.35;;
64799;SDS011;51233;51.982;4.594;2023-01-23T15:16:49;5.68;;;4.50;;
64799;SDS011;51233;51.982;4.594;2023-01-23T15:19:53;7.20;;;6.60;;
64799;SDS011;51233;51.982;4.594;2023-01-23T15:22:54;7.43;;;6.70;;
64799;SDS011;51233;51.982;4.594;2023-01-23T15:26:08;7.03;;;6.32;;
64799;SDS011;51233;51.982;4.594;2023-01-23T15:32:14;7.47;;;6.77;;
64799;SDS011;51233;51.982;4.594;2023-01-23T15:35:15;7.32;;;6.63;;
64799;SDS011;51233;51.982;4.594;2023-01-23T15:38:16;7.00;;;6.30;;
64799;SDS011;51233;51.982;4.594;2023-01-23T15:41:19;5.13;;;4.73;;
64799;SDS011;51233;51.982;4.594;2023-01-23T15:44:20;6.88;;;6.28;;
64799;SDS011;51233;51.982;4.594;2023-01-23T15:47:21;4.90;;;4.50;;
64799;SDS011;51233;51.982;4.594;2023-01-23T15:50:21;5.37;;;4.97;;
64799;SDS011;51233;51.982;4.594;2023-01-23T15:53:21;5.03;;;4.63;;
64799;SDS011;51233;51.982;4.594;2023-01-23T15:56:26;5.70;;;5.17;;
64799;SDS011;51233;51.982;4.594;2023-01-23T15:59:27;6.07;;;5.47;;
64799;SDS011;51233;51.982;4.594;2023-01-23T16:02:27;5.05;;;4.57;;
64799;SDS011;51233;51.982;4.594;2023-01-23T16:05:29;5.47;;;4.97;;
64799;SDS011;51233;51.982;4.594;2023-01-23T16:11:31;5.63;;;5.13;;
64799;SDS011;51233;51.982;4.594;2023-01-23T16:14:32;5.03;;;4.68;;
64799;SDS011;51233;51.982;4.594;2023-01-23T16:17:32;5.53;;;4.75;;
64799;SDS011;51233;51.982;4.594;2023-01-23T16:20:34;6.03;;;5.43;;
64799;SDS011;51233;51.982;4.594;2023-01-23T16:26:35;7.70;;;6.82;;
64799;SDS011;51233;51.982;4.594;2023-01-23T16:29:35;6.72;;;6.03;;
64799;SDS011;51233;51.982;4.594;2023-01-23T16:32:35;8.50;;;5.72;;
64799;SDS011;51233;51.982;4.594;2023-01-23T16:35:35;7.32;;;5.88;;
64799;SDS011;51233;51.982;4.594;2023-01-23T16:38:35;5.95;;;5.40;;
64799;SDS011;51233;51.982;4.594;2023-01-23T16:41:36;6.72;;;6.12;;
64799;SDS011;51233;51.982;4.594;2023-01-23T16:44:36;5.90;;;5.30;;
64799;SDS011;51233;51.982;4.594;2023-01-23T16:47:36;6.68;;;6.07;;
64799;SDS011;51233;51.982;4.594;2023-01-23T16:50:38;5.53;;;5.03;;
64799;SDS011;51233;51.982;4.594;2023-01-23T16:53:40;7.90;;;7.10;;
64799;SDS011;51233;51.982;4.594;2023-01-23T16:56:41;8.38;;;7.57;;
64799;SDS011;51233;51.982;4.594;2023-01-23T16:59:42;8.43;;;7.05;;
64799;SDS011;51233;51.982;4.594;2023-01-23T17:02:42;6.20;;;5.60;;
64799;SDS011;51233;51.982;4.594;2023-01-23T17:05:46;6.75;;;6.10;;
64799;SDS011;51233;51.982;4.594;2023-01-23T17:08:46;7.20;;;6.45;;
64799;SDS011;51233;51.982;4.594;2023-01-23T17:11:51;6.25;;;4.57;;
64799;SDS011;51233;51.982;4.594;2023-01-23T17:14:52;6.18;;;5.20;;
64799;SDS011;51233;51.982;4.594;2023-01-23T17:17:53;5.82;;;4.95;;
64799;SDS011;51233;51.982;4.594;2023-01-23T17:20:54;6.65;;;6.05;;
64799;SDS011;51233;51.982;4.594;2023-01-23T17:23:55;5.47;;;4.97;;
64799;SDS011;51233;51.982;4.594;2023-01-23T17:26:55;6.20;;;5.47;;
64799;SDS011;51233;51.982;4.594;2023-01-23T17:29:55;5.57;;;4.90;;
64799;SDS011;51233;51.982;4.594;2023-01-23T17:32:55;5.90;;;5.30;;
64799;SDS011;51233;51.982;4.594;2023-01-23T17:35:56;6.90;;;6.30;;
64799;SDS011;51233;51.982;4.594;2023-01-23T17:38:58;6.70;;;6.03;;
64799;SDS011;51233;51.982;4.594;2023-01-23T17:41:58;5.18;;;4.65;;
64799;SDS011;51233;51.982;4.594;2023-01-23T17:44:58;6.50;;;5.57;;
64799;SDS011;51233;51.982;4.594;2023-01-23T17:47:59;4.63;;;4.22;;
64799;SDS011;51233;51.982;4.594;2023-01-23T17:51:00;5.88;;;5.30;;
64799;SDS011;51233;51.982;4.594;2023-01-23T17:54:00;7.50;;;6.70;;
64799;SDS011;51233;51.982;4.594;2023-01-23T17:57:00;5.55;;;5.05;;
64799;SDS011;51233;51.982;4.594;2023-01-23T18:00:01;5.57;;;5.10;;
64799;SDS011;51233;51.982;4.594;2023-01-23T18:03:01;3.08;;;2.80;;
64799;SDS011;51233;51.982;4.594;2023-01-23T18:06:02;6.97;;;6.38;;
64799;SDS011;51233;51.982;4.594;2023-01-23T18:09:02;5.17;;;4.77;;
64799;SDS011;51233;51.982;4.594;2023-01-23T18:12:02;4.75;;;4.35;;
64799;SDS011;51233;51.982;4.594;2023-01-23T18:15:07;6.63;;;6.00;;
64799;SDS011;51233;51.982;4.594;2023-01-23T18:21:22;6.75;;;5.78;;
64799;SDS011;51233;51.982;4.594;2023-01-23T18:24:23;5.65;;;5.15;;
64799;SDS011;51233;51.982;4.594;2023-01-23T18:27:25;5.95;;;5.45;;
64799;SDS011;51233;51.982;4.594;2023-01-23T18:30:33;7.28;;;5.82;;
64799;SDS011;51233;51.982;4.594;2023-01-23T18:33:51;7.03;;;6.35;;
64799;SDS011;51233;51.982;4.594;2023-01-23T18:40:13;3.65;;;3.35;;
64799;SDS011;51233;51.982;4.594;2023-01-23T18:46:15;7.68;;;6.97;;
64799;SDS011;51233;51.982;4.594;2023-01-23T18:49:16;13.57;;;8.82;;
64799;SDS011;51233;51.982;4.594;2023-01-23T18:52:23;7.15;;;6.20;;
64799;SDS011;51233;51.982;4.594;2023-01-23T18:55:31;8.20;;;7.43;;
64799;SDS011;51233;51.982;4.594;2023-01-23T18:58:57;7.78;;;6.30;;
64799;SDS011;51233;51.982;4.594;2023-01-23T19:02:40;6.80;;;6.20;;
64799;SDS011;51233;51.982;4.594;2023-01-23T19:08:24;7.30;;;6.60;;
64799;SDS011;51233;51.982;4.594;2023-01-23T19:24:07;11.10;;;8.60;;
64799;SDS011;51233;51.982;4.594;2023-01-23T19:27:22;7.68;;;7.07;;
64799;SDS011;51233;51.982;4.594;2023-01-23T19:30:22;7.82;;;7.13;;
64799;SDS011;51233;51.982;4.594;2023-01-23T19:33:24;9.02;;;8.20;;
64799;SDS011;51233;51.982;4.594;2023-01-23T19:36:24;9.90;;;8.90;;
64799;SDS011;51233;51.982;4.594;2023-01-23T19:39:25;9.73;;;8.82;;
64799;SDS011;51233;51.982;4.594;2023-01-23T19:42:25;8.33;;;7.53;;
64799;SDS011;51233;51.982;4.594;2023-01-23T19:45:25;8.18;;;7.47;;
64799;SDS011;51233;51.982;4.594;2023-01-23T19:48:26;7.07;;;6.40;;
64799;SDS011;51233;51.982;4.594;2023-01-23T19:51:26;8.73;;;8.02;;
64799;SDS011;51233;51.982;4.594;2023-01-23T19:54:26;9.30;;;8.40;;